Time;durP1;ratioP1;P1;durP2;ratioP2;P2;SDS_P1;SDS_P2;PMS_P1;PMS_P2;Temp;Humidity;BMP_temperature;BMP_pressure;BME280_temperature;BME280_humidity;BME280_pressure;Samples;Min_cycle;Max_cycle;Signal;HPM_P1;HPM_P2
2021/01/10 00:00:28;;;;;;;0.55;0.50;;;2.70;99.90;;;;;;5020780;28;20056;-47
2021/01/10 00:02:56;;;;;;;0.40;0.35;;;2.70;99.90;;;;;;5029903;28;20045;-46
2021/01/10 00:05:25;;;;;;;1.20;0.40;;;2.70;99.90;;;;;;5020914;28;20141;-46
2021/01/10 00:07:52;;;;;;;0.50;0.40;;;2.60;99.90;;;;;;5028596;28;20049;-47
2021/01/10 00:10:19;;;;;;;0.60;0.30;;;2.60;99.90;;;;;;5020151;28;20406;-47
2021/01/10 00:12:46;;;;;;;0.30;0.30;;;2.60;99.90;;;;;;5025330;28;20045;-47
2021/01/10 00:15:15;;;;;;;0.40;0.40;;;2.60;99.90;;;;;;5023908;28;20140;-47
2021/01/10 00:17:48;;;;;;;0.95;0.45;;;2.60;99.90;;;;;;5031296;28;20049;-46
2021/01/10 00:20:17;;;;;;;0.40;0.40;;;2.50;99.90;;;;;;5030342;28;20587;-47
2021/01/10 00:23:05;;;;;;;0.40;0.38;;;2.50;99.90;;;;;;5031164;28;20462;-47
2021/01/10 00:25:31;;;;;;;0.50;0.40;;;2.50;99.90;;;;;;5025519;28;20054;-46
2021/01/10 00:27:58;;;;;;;0.63;0.43;;;2.50;99.90;;;;;;5025991;28;20046;-47
2021/01/10 00:30:25;;;;;;;1.25;0.50;;;2.50;99.90;;;;;;5029834;28;20482;-47
2021/01/10 00:32:56;;;;;;;0.35;0.35;;;2.50;99.90;;;;;;5030104;28;20056;-47
2021/01/10 00:35:24;;;;;;;0.50;0.30;;;2.50;99.90;;;;;;5018307;28;20133;-47
2021/01/10 00:37:55;;;;;;;0.50;0.50;;;2.50;99.90;;;;;;5028402;28;20041;-47
2021/01/10 00:40:23;;;;;;;11.70;4.50;;;2.40;99.90;;;;;;5022144;28;20049;-47
2021/01/10 00:42:51;;;;;;;2.30;0.80;;;2.40;99.90;;;;;;5025075;28;20456;-47
2021/01/10 00:45:18;;;;;;;2.72;0.60;;;2.50;99.90;;;;;;5016156;28;20049;-46
2021/01/10 00:47:45;;;;;;;0.75;0.52;;;2.50;99.90;;;;;;5030722;28;20046;-46
2021/01/10 00:50:12;;;;;;;0.80;0.50;;;2.40;99.90;;;;;;5028116;28;20048;-46
2021/01/10 00:52:39;;;;;;;0.82;0.50;;;2.40;99.90;;;;;;5061619;28;20556;-46
2021/01/10 00:55:07;;;;;;;0.60;0.50;;;2.40;99.90;;;;;;5026483;28;20383;-47
2021/01/10 00:57:34;;;;;;;0.77;0.60;;;2.50;99.90;;;;;;5023605;28;20054;-47
2021/01/10 01:00:11;;;;;;;0.55;0.40;;;2.40;99.90;;;;;;5027870;28;20441;-47
2021/01/10 01:02:37;;;;;;;1.25;0.70;;;2.40;99.90;;;;;;5027407;28;20467;-46
2021/01/10 01:05:04;;;;;;;0.80;0.70;;;2.40;99.90;;;;;;5019838;28;20042;-47
2021/01/10 01:07:31;;;;;;;0.60;0.60;;;2.50;99.90;;;;;;5021269;28;20050;-46
2021/01/10 01:09:58;;;;;;;0.40;0.40;;;2.50;99.90;;;;;;5015780;28;20078;-47
2021/01/10 01:12:26;;;;;;;1.75;0.50;;;2.60;99.90;;;;;;5023660;28;20068;-47
2021/01/10 01:14:53;;;;;;;0.50;0.45;;;2.60;99.90;;;;;;5029512;28;20478;-47
2021/01/10 01:17:19;;;;;;;0.80;0.40;;;2.60;99.90;;;;;;5026082;28;20053;-46
2021/01/10 01:19:46;;;;;;;0.40;0.40;;;2.60;99.90;;;;;;5016886;28;20045;-47
2021/01/10 01:22:13;;;;;;;0.50;0.40;;;2.60;99.90;;;;;;5029310;28;20515;-47
2021/01/10 01:24:39;;;;;;;0.50;0.40;;;2.60;99.90;;;;;;5028342;28;20061;-46
2021/01/10 01:27:06;;;;;;;0.60;0.50;;;2.60;99.90;;;;;;5027263;28;20045;-47
2021/01/10 01:29:32;;;;;;;1.40;0.40;;;2.60;99.90;;;;;;5026482;28;20055;-47
2021/01/10 01:31:59;;;;;;;0.57;0.50;;;2.60;99.90;;;;;;5013254;28;20053;-47
2021/01/10 01:34:26;;;;;;;0.32;0.30;;;2.60;99.90;;;;;;5024998;28;20068;-47
2021/01/10 01:36:53;;;;;;;0.30;0.22;;;2.60;99.90;;;;;;5014133;28;20067;-47
2021/01/10 01:39:20;;;;;;;0.45;0.30;;;2.70;99.90;;;;;;5027165;28;20049;-47
2021/01/10 01:41:49;;;;;;;0.35;0.30;;;2.70;99.90;;;;;;5020913;28;20049;-47
2021/01/10 01:44:16;;;;;;;0.30;0.30;;;2.60;99.90;;;;;;5029217;28;20060;-47
2021/01/10 01:46:43;;;;;;;0.30;0.30;;;2.70;99.90;;;;;;5026280;28;20065;-47
2021/01/10 01:49:11;;;;;;;0.40;0.35;;;2.70;99.90;;;;;;5011412;28;20054;-47
2021/01/10 01:51:39;;;;;;;0.60;0.40;;;2.70;99.90;;;;;;5029638;28;20499;-46
2021/01/10 01:54:07;;;;;;;0.40;0.30;;;2.60;99.90;;;;;;5022803;28;20059;-47
2021/01/10 01:56:35;;;;;;;0.60;0.40;;;2.60;99.90;;;;;;5032758;28;20046;-46
2021/01/10 01:59:07;;;;;;;0.60;0.50;;;2.60;99.90;;;;;;5030839;28;20049;-46
2021/01/10 02:01:38;;;;;;;1.35;0.47;;;2.60;99.90;;;;;;5018713;28;20050;-47
2021/01/10 02:04:40;;;;;;;0.50;0.45;;;2.50;99.90;;;;;;5029305;28;20054;-46
2021/01/10 02:07:51;;;;;;;0.47;0.40;;;2.50;99.90;;;;;;5029269;28;20459;-46
2021/01/10 02:10:26;;;;;;;1.02;0.50;;;2.70;99.90;;;;;;5013856;28;20042;-47
2021/01/10 02:12:57;;;;;;;1.65;1.05;;;2.70;99.90;;;;;;5031007;28;20068;-47
2021/01/10 02:15:27;;;;;;;6.57;2.75;;;2.60;99.90;;;;;;5029459;28;20073;-47
2021/01/10 02:17:56;;;;;;;4.38;1.90;;;2.60;99.90;;;;;;5034376;28;20048;-47
2021/01/10 02:20:33;;;;;;;1.67;0.90;;;2.50;99.90;;;;;;5031809;28;20050;-47
2021/01/10 02:23:09;;;;;;;0.40;0.40;;;2.50;99.90;;;;;;5033033;28;20423;-47
2021/01/10 02:25:41;;;;;;;0.57;0.38;;;2.60;99.90;;;;;;5031487;28;20120;-47
2021/01/10 02:28:09;;;;;;;0.55;0.47;;;2.60;99.90;;;;;;5014513;28;20415;-46
2021/01/10 02:30:40;;;;;;;0.40;0.30;;;2.50;99.90;;;;;;5033642;28;20053;-47
2021/01/10 02:33:12;;;;;;;0.50;0.40;;;2.50;99.90;;;;;;5029550;28;20060;-47
2021/01/10 02:35:41;;;;;;;0.52;0.40;;;2.60;99.90;;;;;;5033930;28;20049;-47
2021/01/10 02:38:28;;;;;;;0.40;0.40;;;2.70;99.90;;;;;;5031118;28;20458;-47
2021/01/10 02:41:11;;;;;;;0.50;0.30;;;2.60;99.90;;;;;;5026964;28;20057;-47
2021/01/10 02:43:45;;;;;;;0.93;0.30;;;2.60;99.90;;;;;;5030511;28;20050;-47
2021/01/10 02:46:13;;;;;;;0.40;0.20;;;2.60;99.90;;;;;;5023162;28;20046;-47
2021/01/10 02:48:41;;;;;;;0.45;0.30;;;2.60;99.90;;;;;;5033024;28;20132;-47
2021/01/10 02:51:11;;;;;;;0.40;0.30;;;2.60;99.90;;;;;;5029687;28;20525;-47
2021/01/10 02:53:38;;;;;;;0.55;0.30;;;2.60;99.90;;;;;;5022660;28;20379;-47
2021/01/10 02:56:05;;;;;;;0.20;0.20;;;2.60;99.90;;;;;;5031518;28;20041;-46
2021/01/10 02:58:35;;;;;;;0.20;0.20;;;2.50;99.90;;;;;;5029916;28;20582;-47
2021/01/10 03:01:05;;;;;;;0.30;0.20;;;2.50;99.90;;;;;;5032520;28;20080;-47
2021/01/10 03:03:32;;;;;;;0.22;0.22;;;2.50;99.90;;;;;;5032000;28;20049;-47
2021/01/10 03:06:01;;;;;;;0.75;0.30;;;2.50;99.90;;;;;;5017912;28;20132;-47
2021/01/10 03:08:28;;;;;;;0.57;0.20;;;2.50;99.90;;;;;;5028887;28;20053;-47
2021/01/10 03:10:55;;;;;;;1.10;0.25;;;2.50;99.90;;;;;;5032174;28;20398;-47
2021/01/10 03:13:22;;;;;;;0.40;0.30;;;2.60;99.90;;;;;;5029809;28;20049;-47
2021/01/10 03:15:50;;;;;;;0.30;0.25;;;2.50;99.90;;;;;;5029073;28;20441;-46
2021/01/10 03:18:23;;;;;;;1.35;0.30;;;2.50;99.90;;;;;;5031807;28;20057;-47
2021/01/10 03:20:50;;;;;;;0.20;0.20;;;2.60;99.90;;;;;;5031577;28;20051;-46
2021/01/10 03:23:17;;;;;;;0.10;0.10;;;2.60;99.90;;;;;;5018082;28;20046;-47
2021/01/10 03:25:44;;;;;;;0.30;0.20;;;2.60;99.90;;;;;;5028608;28;20049;-47
2021/01/10 03:28:11;;;;;;;1.08;0.30;;;2.60;99.90;;;;;;5013310;28;20050;-47
2021/01/10 03:30:38;;;;;;;0.30;0.20;;;2.60;99.90;;;;;;5031570;28;20104;-47
2021/01/10 03:33:05;;;;;;;0.00;0.00;;;2.60;99.90;;;;;;5030865;28;20053;-46
2021/01/10 03:35:34;;;;;;;0.05;0.05;;;2.70;99.90;;;;;;5033298;28;20059;-48
2021/01/10 03:38:04;;;;;;;0.30;0.10;;;2.80;99.90;;;;;;5031063;28;20049;-47
2021/01/10 03:40:31;;;;;;;1.02;0.25;;;2.80;99.90;;;;;;5032341;28;20056;-47
2021/01/10 03:42:58;;;;;;;0.70;0.20;;;2.80;99.90;;;;;;5028618;28;20041;-46
2021/01/10 03:45:25;;;;;;;0.20;0.10;;;2.70;99.90;;;;;;5029666;28;20053;-47
2021/01/10 03:47:52;;;;;;;0.20;0.20;;;2.80;99.90;;;;;;5031447;28;20053;-46
2021/01/10 03:50:18;;;;;;;0.10;0.10;;;2.70;99.90;;;;;;5031146;28;20052;-47
2021/01/10 03:52:45;;;;;;;0.10;0.10;;;2.70;99.90;;;;;;5030301;28;20448;-47
2021/01/10 03:55:12;;;;;;;0.22;0.10;;;2.80;99.90;;;;;;5029607;28;20049;-46
2021/01/10 03:57:39;;;;;;;0.00;0.00;;;2.70;99.90;;;;;;5030788;28;20061;-47
2021/01/10 04:00:08;;;;;;;0.00;0.00;;;2.70;99.90;;;;;;5030488;28;20057;-47
2021/01/10 04:02:35;;;;;;;0.10;0.00;;;2.70;99.90;;;;;;5029753;28;20056;-48
2021/01/10 04:05:06;;;;;;;0.00;0.00;;;2.70;99.90;;;;;;5030760;28;20075;-46
2021/01/10 04:07:32;;;;;;;0.00;0.00;;;2.70;99.90;;;;;;5029444;28;20041;-46
2021/01/10 04:09:59;;;;;;;0.00;0.00;;;2.70;99.90;;;;;;5030252;28;20046;-46
2021/01/10 04:12:26;;;;;;;0.10;0.00;;;2.70;99.90;;;;;;5025134;28;20462;-47
2021/01/10 04:14:55;;;;;;;0.00;0.00;;;2.70;99.90;;;;;;5019933;28;20050;-47
2021/01/10 04:17:25;;;;;;;0.08;0.00;;;2.60;99.90;;;;;;5027809;28;20064;-47
2021/01/10 04:19:53;;;;;;;0.20;0.10;;;2.60;99.90;;;;;;5016232;28;20060;-48
2021/01/10 04:22:20;;;;;;;0.00;0.00;;;2.70;99.90;;;;;;5029662;28;20515;-47
2021/01/10 04:24:48;;;;;;;0.10;0.10;;;2.80;99.90;;;;;;5019576;28;20176;-47
2021/01/10 04:27:14;;;;;;;0.00;0.00;;;2.80;99.90;;;;;;5030431;28;20049;-47
2021/01/10 04:29:41;;;;;;;0.20;0.10;;;2.80;99.90;;;;;;5029368;28;20049;-47
2021/01/10 04:32:07;;;;;;;0.22;0.10;;;2.80;99.90;;;;;;5030980;28;20063;-47
2021/01/10 04:34:35;;;;;;;0.35;0.13;;;2.80;99.90;;;;;;5028552;28;20056;-47
2021/01/10 04:37:01;;;;;;;0.10;0.00;;;2.80;99.90;;;;;;5016336;28;20049;-47
2021/01/10 04:39:28;;;;;;;0.00;0.00;;;2.80;99.90;;;;;;5031398;28;20057;-46
2021/01/10 04:41:56;;;;;;;1.30;0.10;;;2.80;99.90;;;;;;5028318;28;20415;-47
2021/01/10 04:44:23;;;;;;;0.13;0.03;;;2.80;99.90;;;;;;5030230;28;20537;-47
2021/01/10 04:46:51;;;;;;;0.00;0.00;;;2.80;99.90;;;;;;5026466;28;20498;-47
2021/01/10 04:49:19;;;;;;;0.00;0.00;;;2.80;99.90;;;;;;5017208;28;20061;-47
2021/01/10 04:51:47;;;;;;;0.00;0.00;;;2.80;99.90;;;;;;5025695;28;20402;-47
2021/01/10 04:54:14;;;;;;;0.00;0.00;;;2.80;99.90;;;;;;5012466;28;20125;-47
2021/01/10 04:56:43;;;;;;;0.28;0.10;;;2.80;99.90;;;;;;5024354;28;20061;-47
2021/01/10 04:59:10;;;;;;;0.00;0.00;;;2.80;99.90;;;;;;5021339;28;20407;-46
2021/01/10 05:01:43;;;;;;;0.15;0.05;;;2.80;99.90;;;;;;5021029;28;20387;-46
2021/01/10 05:04:11;;;;;;;0.10;0.00;;;2.80;99.90;;;;;;5021216;28;20128;-47
2021/01/10 05:06:38;;;;;;;0.10;0.00;;;2.80;99.90;;;;;;5030788;28;20130;-47
2021/01/10 05:09:06;;;;;;;0.90;0.30;;;2.80;99.90;;;;;;5026906;28;20528;-47
2021/01/10 05:11:33;;;;;;;0.00;0.00;;;2.80;99.90;;;;;;5011491;28;20054;-48
2021/01/10 05:14:02;;;;;;;0.00;0.00;;;2.90;99.90;;;;;;5028667;28;20091;-47
2021/01/10 05:16:34;;;;;;;0.00;0.00;;;2.90;99.90;;;;;;5028830;28;20060;-47
2021/01/10 05:19:03;;;;;;;0.00;0.00;;;2.90;99.90;;;;;;5018261;28;20061;-46
2021/01/10 05:21:30;;;;;;;0.10;0.00;;;2.90;99.90;;;;;;5023441;28;20518;-46
2021/01/10 05:23:59;;;;;;;0.05;0.00;;;2.80;99.90;;;;;;5013911;28;20042;-46
2021/01/10 05:26:32;;;;;;;0.03;0.00;;;2.80;99.90;;;;;;5029717;28;20560;-47
2021/01/10 05:29:11;;;;;;;0.00;0.00;;;2.80;99.90;;;;;;5023283;28;20041;-48
2021/01/10 05:31:43;;;;;;;0.00;0.00;;;2.80;99.90;;;;;;5030408;28;20045;-47
2021/01/10 05:34:16;;;;;;;0.10;0.00;;;2.80;99.90;;;;;;5034466;28;20084;-46
2021/01/10 05:36:43;;;;;;;0.00;0.00;;;2.80;99.90;;;;;;5036104;28;20049;-46
2021/01/10 05:39:24;;;;;;;0.10;0.10;;;2.90;99.90;;;;;;5035472;28;20068;-47
2021/01/10 05:41:54;;;;;;;0.00;0.00;;;2.90;99.90;;;;;;5035536;28;20072;-48
2021/01/10 05:44:25;;;;;;;0.00;0.00;;;2.90;99.90;;;;;;5027827;28;20046;-47
2021/01/10 05:47:09;;;;;;;1.15;0.00;;;2.90;99.90;;;;;;5030996;28;20052;-47
2021/01/10 05:49:51;;;;;;;0.00;0.00;;;2.90;99.90;;;;;;5035165;28;20049;-47
2021/01/10 05:52:18;;;;;;;0.00;0.00;;;2.80;99.90;;;;;;5031166;28;20510;-47
2021/01/10 05:54:46;;;;;;;0.75;0.00;;;2.80;99.90;;;;;;5021533;28;20541;-47
2021/01/10 05:57:18;;;;;;;0.00;0.00;;;2.70;99.90;;;;;;5036319;28;20049;-47
2021/01/10 05:59:49;;;;;;;0.00;0.00;;;2.80;99.90;;;;;;5034974;28;20054;-48
2021/01/10 06:02:30;;;;;;;0.00;0.00;;;2.70;99.90;;;;;;5022167;28;20100;-47
2021/01/10 06:05:10;;;;;;;0.00;0.00;;;2.70;99.90;;;;;;5032709;28;20398;-47
2021/01/10 06:07:39;;;;;;;0.10;0.00;;;2.70;99.90;;;;;;5035981;28;20050;-49
2021/01/10 06:10:07;;;;;;;0.10;0.10;;;2.70;99.90;;;;;;5028286;28;20050;-47
2021/01/10 06:12:34;;;;;;;1.75;0.10;;;2.70;99.90;;;;;;5027691;28;20502;-48
2021/01/10 06:15:15;;;;;;;0.52;0.10;;;2.70;99.90;;;;;;5023878;28;20056;-47
2021/01/10 06:17:49;;;;;;;0.00;0.00;;;2.70;99.90;;;;;;5033637;28;20056;-47
2021/01/10 06:20:22;;;;;;;0.00;0.00;;;2.70;99.90;;;;;;5035201;28;20068;-47
2021/01/10 06:22:51;;;;;;;0.00;0.00;;;2.60;99.90;;;;;;5035163;28;20052;-47
2021/01/10 06:25:22;;;;;;;0.00;0.00;;;2.50;99.90;;;;;;5034690;28;20042;-47
2021/01/10 06:27:58;;;;;;;0.00;0.00;;;2.40;99.90;;;;;;5023675;28;20096;-48
2021/01/10 06:30:29;;;;;;;0.00;0.00;;;2.50;99.90;;;;;;5031119;28;20740;-48
2021/01/10 06:33:02;;;;;;;0.00;0.00;;;2.50;99.90;;;;;;5018921;28;20108;-48
2021/01/10 06:35:36;;;;;;;0.00;0.00;;;2.50;99.90;;;;;;5034980;28;20399;-47
2021/01/10 06:38:07;;;;;;;0.00;0.00;;;2.40;99.90;;;;;;5032437;28;20526;-47
2021/01/10 06:40:36;;;;;;;0.10;0.08;;;2.40;99.90;;;;;;5032876;28;20054;-47
2021/01/10 06:43:04;;;;;;;0.00;0.00;;;2.30;99.90;;;;;;5029936;28;20042;-48
2021/01/10 06:45:38;;;;;;;0.00;0.00;;;2.20;99.90;;;;;;5031823;28;20076;-47
2021/01/10 06:48:09;;;;;;;0.00;0.00;;;2.20;99.90;;;;;;5026670;28;20790;-48
2021/01/10 06:50:36;;;;;;;0.45;0.30;;;2.10;99.90;;;;;;5017357;28;20049;-49
2021/01/10 06:53:07;;;;;;;0.10;0.10;;;2.00;99.90;;;;;;5032093;28;20068;-47
2021/01/10 06:55:34;;;;;;;0.13;0.00;;;2.00;99.90;;;;;;5027615;28;20045;-51
2021/01/10 06:58:08;;;;;;;0.10;0.10;;;1.90;99.90;;;;;;5020285;28;20052;-48
2021/01/10 07:00:55;;;;;;;0.10;0.10;;;1.90;99.90;;;;;;5025771;28;20052;-47
2021/01/10 07:03:23;;;;;;;0.00;0.00;;;1.80;99.90;;;;;;5014743;28;20042;-48
2021/01/10 07:06:02;;;;;;;0.30;0.20;;;1.80;99.90;;;;;;5032086;28;20057;-48
2021/01/10 07:08:52;;;;;;;0.13;0.10;;;1.70;99.90;;;;;;5029799;28;20063;-47
2021/01/10 07:11:24;;;;;;;0.45;0.30;;;1.70;99.90;;;;;;5027933;28;20049;-47
2021/01/10 07:14:12;;;;;;;0.50;0.30;;;1.60;99.90;;;;;;5028770;28;20053;-47
2021/01/10 07:16:46;;;;;;;0.70;0.50;;;1.60;99.90;;;;;;5022650;28;20467;-48
2021/01/10 07:19:14;;;;;;;0.60;0.30;;;1.70;99.90;;;;;;5031386;28;20055;-48
2021/01/10 07:21:46;;;;;;;0.10;0.10;;;1.60;99.90;;;;;;5030890;28;20055;-47
2021/01/10 07:24:15;;;;;;;0.45;0.20;;;1.60;99.90;;;;;;5031443;28;20042;-47
2021/01/10 07:26:44;;;;;;;0.10;0.10;;;1.60;99.90;;;;;;5027425;28;20049;-48
2021/01/10 07:29:30;;;;;;;1.75;0.65;;;1.60;99.90;;;;;;5015066;28;20037;-47
2021/01/10 07:32:04;;;;;;;3.50;1.08;;;1.70;99.90;;;;;;5023501;28;20411;-47
2021/01/10 07:34:33;;;;;;;9.18;1.77;;;1.60;99.90;;;;;;5023512;28;20179;-48
2021/01/10 07:37:01;;;;;;;8.68;2.38;;;1.60;99.90;;;;;;5027498;28;20067;-47
2021/01/10 07:39:30;;;;;;;4.68;1.25;;;1.60;99.90;;;;;;5027573;28;20044;-48
2021/01/10 07:42:27;;;;;;;1.63;0.70;;;1.60;99.90;;;;;;5017880;28;20053;-51
2021/01/10 07:45:02;;;;;;;1.30;0.47;;;1.40;99.90;;;;;;5024138;28;20420;-48
2021/01/10 07:47:32;;;;;;;1.00;0.80;;;1.40;99.90;;;;;;5022875;28;20072;-47
2021/01/10 07:50:02;;;;;;;0.30;0.30;;;1.40;99.90;;;;;;5024966;28;20050;-47
2021/01/10 07:52:49;;;;;;;0.10;0.00;;;1.40;99.90;;;;;;5029508;28;20053;-47
2021/01/10 07:55:19;;;;;;;0.80;0.40;;;1.50;99.90;;;;;;5030147;28;20092;-47
2021/01/10 07:58:01;;;;;;;0.45;0.35;;;1.50;99.90;;;;;;5023144;28;20049;-47
2021/01/10 08:00:33;;;;;;;0.30;0.20;;;1.60;99.90;;;;;;5029777;28;20050;-48
2021/01/10 08:03:02;;;;;;;0.22;0.20;;;1.60;99.90;;;;;;5031039;28;20107;-48
2021/01/10 08:05:54;;;;;;;0.70;0.52;;;1.50;99.90;;;;;;5027537;28;20049;-47
2021/01/10 08:08:36;;;;;;;4.28;2.25;;;1.50;99.90;;;;;;5019428;28;20049;-47
2021/01/10 08:11:03;;;;;;;1.30;1.00;;;1.50;99.90;;;;;;5018165;28;20377;-47
2021/01/10 08:13:37;;;;;;;0.80;0.60;;;1.60;99.90;;;;;;5021740;28;20065;-48
2021/01/10 08:16:09;;;;;;;1.63;0.90;;;1.60;99.90;;;;;;5020028;28;20058;-49
2021/01/10 08:18:38;;;;;;;2.03;0.90;;;1.60;99.90;;;;;;5029075;28;20455;-47
2021/01/10 08:21:10;;;;;;;1.25;0.70;;;1.70;99.90;;;;;;5027253;28;20056;-48
2021/01/10 08:23:39;;;;;;;0.77;0.60;;;1.70;99.90;;;;;;5029820;28;20056;-48
2021/01/10 08:26:07;;;;;;;1.15;0.85;;;1.70;99.90;;;;;;5029249;28;20038;-47
2021/01/10 08:28:48;;;;;;;0.22;0.22;;;1.70;99.90;;;;;;5023756;28;20045;-47
2021/01/10 08:31:16;;;;;;;0.70;0.50;;;1.70;99.90;;;;;;5026594;28;20417;-47
2021/01/10 08:33:44;;;;;;;0.82;0.63;;;1.80;99.90;;;;;;5030006;28;20050;-47
2021/01/10 08:36:15;;;;;;;0.60;0.50;;;1.80;99.90;;;;;;5028554;28;20060;-47
2021/01/10 08:38:52;;;;;;;1.98;1.27;;;1.80;99.90;;;;;;5029516;28;20057;-49
2021/01/10 08:41:36;;;;;;;1.90;1.13;;;1.80;99.90;;;;;;5029122;28;20045;-48
2021/01/10 08:44:13;;;;;;;1.00;0.60;;;1.80;99.90;;;;;;5027084;28;20059;-47
2021/01/10 08:46:45;;;;;;;0.85;0.60;;;1.90;99.90;;;;;;5026252;28;20045;-48
2021/01/10 08:49:25;;;;;;;2.97;1.20;;;1.90;99.90;;;;;;5026399;28;20052;-47
2021/01/10 08:51:53;;;;;;;4.05;2.13;;;1.90;99.90;;;;;;5030043;28;20061;-48
2021/01/10 08:54:24;;;;;;;1.63;0.90;;;1.90;99.90;;;;;;5027674;28;20051;-47
2021/01/10 08:56:56;;;;;;;0.38;0.30;;;2.00;99.90;;;;;;5028074;28;20096;-47
2021/01/10 08:59:34;;;;;;;0.20;0.10;;;2.00;99.90;;;;;;5022649;28;20053;-47
2021/01/10 09:02:08;;;;;;;0.52;0.32;;;2.00;99.90;;;;;;5021159;28;20480;-48
2021/01/10 09:04:42;;;;;;;1.20;0.80;;;2.10;99.90;;;;;;5018559;28;20124;-49
2021/01/10 09:07:09;;;;;;;1.20;0.70;;;2.10;99.90;;;;;;5018939;28;20050;-47
2021/01/10 09:09:53;;;;;;;4.40;3.05;;;2.00;99.90;;;;;;5023919;28;20049;-48
2021/01/10 09:12:22;;;;;;;17.95;10.82;;;2.00;99.90;;;;;;5022493;28;20055;-47
2021/01/10 09:14:53;;;;;;;8.02;5.60;;;2.10;99.90;;;;;;5029109;28;20064;-52
2021/01/10 09:17:48;;;;;;;13.05;7.38;;;2.10;99.90;;;;;;5021089;28;20782;-48
2021/01/10 09:20:25;;;;;;;7.38;3.72;;;2.10;99.90;;;;;;5029538;28;20049;-47
2021/01/10 09:22:52;;;;;;;1.00;0.70;;;2.20;99.90;;;;;;5027584;28;20050;-49
2021/01/10 09:25:19;;;;;;;1.05;0.60;;;2.20;99.90;;;;;;5019735;28;20050;-48
2021/01/10 09:28:18;;;;;;;0.80;0.70;;;2.20;99.90;;;;;;5029252;28;20107;-48
2021/01/10 09:30:53;;;;;;;1.42;0.70;;;2.20;99.90;;;;;;5027535;28;20045;-48
2021/01/10 09:33:31;;;;;;;14.25;7.65;;;2.30;99.90;;;;;;5028002;28;20398;-48
2021/01/10 09:35:59;;;;;;;6.07;3.22;;;2.30;99.90;;;;;;5027676;28;20049;-48
2021/01/10 09:38:29;;;;;;;3.75;1.90;;;2.30;99.90;;;;;;5026988;28;20053;-49
2021/01/10 09:41:07;;;;;;;1.30;1.10;;;2.30;99.90;;;;;;5027569;28;20091;-51
2021/01/10 09:43:49;;;;;;;2.00;0.80;;;2.40;99.90;;;;;;5026951;28;20060;-47
2021/01/10 09:46:28;;;;;;;1.60;0.35;;;2.40;99.90;;;;;;5026289;28;20133;-48
2021/01/10 09:48:56;;;;;;;1.17;0.90;;;2.40;99.90;;;;;;5027963;28;20528;-47
2021/01/10 09:51:41;;;;;;;2.10;1.00;;;2.40;99.90;;;;;;5029017;28;20121;-50
2021/01/10 09:54:16;;;;;;;0.90;0.70;;;2.40;99.90;;;;;;5026259;28;20067;-47
2021/01/10 09:56:45;;;;;;;8.25;3.83;;;2.40;99.90;;;;;;5026092;28;20056;-48
2021/01/10 09:59:33;;;;;;;2.38;0.88;;;2.40;99.90;;;;;;5027424;28;20056;-47
2021/01/10 10:02:06;;;;;;;2.67;0.70;;;2.40;99.90;;;;;;5026917;28;20148;-47
2021/01/10 10:04:34;;;;;;;21.00;8.80;;;2.50;99.90;;;;;;5027433;28;20050;-47
2021/01/10 10:07:02;;;;;;;4.43;2.90;;;2.50;99.90;;;;;;5020328;28;20049;-47
2021/01/10 10:09:52;;;;;;;1.52;1.42;;;2.50;99.90;;;;;;5022545;28;20045;-47
2021/01/10 10:12:21;;;;;;;15.10;8.18;;;2.50;99.90;;;;;;5026252;28;20046;-47
2021/01/10 10:15:08;;;;;;;33.67;17.52;;;2.50;99.90;;;;;;5027077;28;20072;-48
2021/01/10 10:17:37;;;;;;;4.40;2.00;;;2.50;99.90;;;;;;5022245;28;20037;-47
2021/01/10 10:20:06;;;;;;;3.10;1.42;;;2.50;99.90;;;;;;5033409;28;20407;-47
2021/01/10 10:22:51;;;;;;;0.50;0.40;;;2.50;99.90;;;;;;5030566;28;20057;-47
2021/01/10 10:25:17;;;;;;;0.43;0.20;;;2.50;99.90;;;;;;5027883;28;20037;-47
2021/01/10 10:28:01;;;;;;;0.17;0.17;;;2.50;99.90;;;;;;5028554;28;20042;-47
2021/01/10 10:30:28;;;;;;;0.25;0.20;;;2.60;99.90;;;;;;5022396;28;20467;-47
2021/01/10 10:32:55;;;;;;;0.20;0.20;;;2.60;99.90;;;;;;5032392;28;20132;-47
2021/01/10 10:35:23;;;;;;;0.10;0.00;;;2.60;99.90;;;;;;5029999;28;20049;-48
2021/01/10 10:37:50;;;;;;;0.03;0.00;;;2.70;99.90;;;;;;5028610;28;20050;-48
2021/01/10 10:40:18;;;;;;;0.10;0.10;;;2.70;99.90;;;;;;5026864;28;20069;-47
2021/01/10 10:42:46;;;;;;;0.10;0.08;;;2.80;99.90;;;;;;5028853;28;20046;-47
2021/01/10 10:45:13;;;;;;;0.10;0.00;;;2.80;99.90;;;;;;5031957;28;20045;-47
2021/01/10 10:47:40;;;;;;;1.20;0.45;;;2.80;99.90;;;;;;5031640;28;20052;-47
2021/01/10 10:50:08;;;;;;;0.50;0.30;;;2.80;99.90;;;;;;5023439;28;20057;-47
2021/01/10 10:52:35;;;;;;;0.10;0.10;;;2.70;99.90;;;;;;5028521;28;20037;-48
2021/01/10 10:55:03;;;;;;;0.10;0.10;;;2.70;99.90;;;;;;5030401;28;20049;-48
2021/01/10 10:57:29;;;;;;;0.20;0.10;;;2.80;99.90;;;;;;5031670;28;20049;-47
2021/01/10 10:59:56;;;;;;;3.72;1.38;;;2.70;99.90;;;;;;5019281;28;20125;-48
2021/01/10 11:02:23;;;;;;;2.78;1.05;;;2.70;99.90;;;;;;5029650;28;20045;-48
2021/01/10 11:04:50;;;;;;;3.88;1.42;;;2.60;99.90;;;;;;5025895;28;20044;-49
2021/01/10 11:07:17;;;;;;;0.77;0.30;;;2.60;99.90;;;;;;5028357;28;20046;-49
2021/01/10 11:09:47;;;;;;;0.15;0.10;;;2.50;99.90;;;;;;5029812;28;20411;-47
2021/01/10 11:12:14;;;;;;;0.22;0.10;;;2.50;99.90;;;;;;5028743;28;20072;-47
2021/01/10 11:14:41;;;;;;;0.30;0.20;;;2.60;99.90;;;;;;5022188;28;20053;-48
2021/01/10 11:17:10;;;;;;;0.90;0.80;;;2.60;99.90;;;;;;5029148;28;20471;-48
2021/01/10 11:19:38;;;;;;;0.13;0.10;;;2.60;99.90;;;;;;5030782;28;20059;-48
2021/01/10 11:22:06;;;;;;;0.15;0.00;;;2.60;99.90;;;;;;5031609;28;20053;-48
2021/01/10 11:24:34;;;;;;;0.73;0.30;;;2.60;99.90;;;;;;5028192;28;20055;-48
2021/01/10 11:27:01;;;;;;;17.02;5.78;;;2.60;99.90;;;;;;5024064;28;20054;-48
2021/01/10 11:29:28;;;;;;;1.10;1.00;;;2.60;99.90;;;;;;5031492;28;20382;-47
2021/01/10 11:31:55;;;;;;;3.05;1.33;;;2.60;99.90;;;;;;5027202;28;20061;-47
2021/01/10 11:34:22;;;;;;;0.60;0.40;;;2.50;99.90;;;;;;5027336;28;20053;-48
2021/01/10 11:36:51;;;;;;;0.70;0.20;;;2.60;99.90;;;;;;5022864;28;20049;-47
2021/01/10 11:39:19;;;;;;;0.77;0.40;;;2.60;99.90;;;;;;5027580;28;20052;-47
2021/01/10 11:41:49;;;;;;;2.92;0.80;;;2.60;99.90;;;;;;5028098;28;20049;-48
2021/01/10 11:44:17;;;;;;;0.60;0.28;;;2.70;99.90;;;;;;5030176;28;20052;-48
2021/01/10 11:46:47;;;;;;;4.45;0.35;;;2.70;99.90;;;;;;5029884;28;20042;-47
2021/01/10 11:49:14;;;;;;;2.75;0.90;;;2.90;99.90;;;;;;5029808;28;20049;-49
2021/01/10 11:51:41;;;;;;;0.38;0.20;;;2.90;99.90;;;;;;5028812;28;20058;-47
2021/01/10 11:54:08;;;;;;;0.52;0.50;;;2.90;99.90;;;;;;5023263;28;20053;-50
2021/01/10 11:56:40;;;;;;;0.60;0.30;;;2.90;99.90;;;;;;5031900;28;20049;-47
2021/01/10 11:59:06;;;;;;;0.20;0.10;;;2.90;99.90;;;;;;5028125;28;20057;-47
2021/01/10 12:01:37;;;;;;;0.10;0.05;;;2.90;99.90;;;;;;5019393;28;20080;-48
2021/01/10 12:04:05;;;;;;;0.05;0.00;;;2.90;99.90;;;;;;5023495;28;20640;-47
2021/01/10 12:06:36;;;;;;;0.10;0.10;;;2.90;99.90;;;;;;5022423;28;20053;-47
2021/01/10 12:09:14;;;;;;;0.20;0.10;;;2.80;99.90;;;;;;5021298;28;20500;-48
2021/01/10 12:11:41;;;;;;;0.22;0.13;;;2.80;99.90;;;;;;5025531;28;20045;-48
2021/01/10 12:14:08;;;;;;;0.00;0.00;;;2.80;99.90;;;;;;5030588;28;20399;-47
2021/01/10 12:16:36;;;;;;;0.05;0.00;;;2.80;99.90;;;;;;5027143;28;20057;-47
2021/01/10 12:19:04;;;;;;;0.35;0.20;;;2.80;99.90;;;;;;5029729;28;20547;-50
2021/01/10 12:21:30;;;;;;;0.17;0.10;;;2.80;99.90;;;;;;5028756;28;20053;-49
2021/01/10 12:23:57;;;;;;;0.60;0.40;;;2.80;99.90;;;;;;5030701;28;20045;-48
2021/01/10 12:26:25;;;;;;;0.10;0.00;;;2.70;99.90;;;;;;5028657;28;20053;-47
2021/01/10 12:28:52;;;;;;;0.10;0.00;;;2.70;99.90;;;;;;5028784;28;20075;-47
2021/01/10 12:31:19;;;;;;;0.08;0.00;;;2.80;99.90;;;;;;5021482;28;20041;-47
2021/01/10 12:33:45;;;;;;;0.75;0.00;;;2.80;99.90;;;;;;5028751;28;20045;-49
2021/01/10 12:36:12;;;;;;;0.30;0.30;;;2.80;99.90;;;;;;5029049;28;20058;-47
2021/01/10 12:38:42;;;;;;;0.00;0.00;;;2.80;99.90;;;;;;5031119;28;20053;-47
2021/01/10 12:41:10;;;;;;;0.10;0.00;;;2.80;99.90;;;;;;5024642;28;20111;-47
2021/01/10 12:43:37;;;;;;;0.00;0.00;;;2.80;99.90;;;;;;5029089;28;20041;-47
2021/01/10 12:46:03;;;;;;;0.10;0.00;;;2.80;99.90;;;;;;5026321;28;20056;-48
2021/01/10 12:48:30;;;;;;;0.20;0.10;;;2.80;99.90;;;;;;5029160;28;20411;-48
2021/01/10 12:50:57;;;;;;;0.10;0.00;;;2.80;99.90;;;;;;5027003;28;20037;-47
2021/01/10 12:53:23;;;;;;;0.00;0.00;;;2.80;99.90;;;;;;5028317;28;20784;-47
2021/01/10 12:55:54;;;;;;;0.98;0.00;;;2.80;99.90;;;;;;5027045;28;20486;-47
2021/01/10 12:58:21;;;;;;;1.17;0.40;;;2.80;99.90;;;;;;5029220;28;20049;-47
2021/01/10 13:00:47;;;;;;;0.57;0.28;;;2.80;99.90;;;;;;5027684;28;20049;-47
2021/01/10 13:03:14;;;;;;;0.00;0.00;;;2.80;99.90;;;;;;5030680;28;20058;-47
2021/01/10 13:05:42;;;;;;;0.20;0.20;;;2.80;99.90;;;;;;5018664;28;20096;-47
2021/01/10 13:08:08;;;;;;;2.28;0.35;;;2.80;99.90;;;;;;5025341;28;20128;-47
2021/01/10 13:10:41;;;;;;;0.20;0.10;;;2.80;99.90;;;;;;5013447;28;20536;-48
2021/01/10 13:13:07;;;;;;;2.22;0.20;;;2.80;99.90;;;;;;5028269;28;20140;-47
2021/01/10 13:15:34;;;;;;;0.20;0.10;;;2.90;99.90;;;;;;5029593;28;20486;-47